Time;durP1;ratioP1;P1;durP2;ratioP2;P2;SDS_P1;SDS_P2;PMS_P1;PMS_P2;Temp;Humidity;BMP_temperature;BMP_pressure;BME280_temperature;BME280_humidity;BME280_pressure;Samples;Min_cycle;Max_cycle;Signal;HPM_P1;HPM_P2
2023/05/11 00:02:21;;;;;;;12.05;10.13;;;16.80;69.80;;;;;;5033422;28;20054;-53
2023/05/11 00:04:48;;;;;;;13.05;11.65;;;16.80;69.90;;;;;;5032127;28;20314;-54
2023/05/11 00:07:18;;;;;;;13.38;10.93;;;16.80;70.00;;;;;;5031363;28;20107;-54
2023/05/11 00:09:44;;;;;;;11.00;9.50;;;16.70;70.10;;;;;;5032043;28;20041;-51
2023/05/11 00:12:13;;;;;;;10.98;9.73;;;16.70;70.10;;;;;;5031724;28;20395;-51
2023/05/11 00:14:46;;;;;;;9.68;8.63;;;16.70;70.20;;;;;;5031578;28;20052;-54
2023/05/11 00:17:17;;;;;;;9.65;8.45;;;16.70;70.30;;;;;;5031526;28;20076;-54
2023/05/11 00:19:44;;;;;;;9.23;8.32;;;16.70;70.40;;;;;;5031393;28;20037;-51
2023/05/11 00:22:14;;;;;;;9.82;7.90;;;16.70;70.90;;;;;;5032418;28;20055;-55
2023/05/11 00:24:41;;;;;;;10.05;8.02;;;16.70;70.30;;;;;;5031783;28;20045;-55
2023/05/11 00:27:13;;;;;;;8.60;7.63;;;16.70;70.20;;;;;;5031518;28;20120;-54
2023/05/11 00:29:42;;;;;;;8.55;7.65;;;16.70;70.30;;;;;;5013866;28;20049;-54
2023/05/11 00:32:12;;;;;;;9.68;8.13;;;16.70;70.30;;;;;;5030965;28;20037;-51
2023/05/11 00:34:41;;;;;;;9.23;8.27;;;16.70;70.30;;;;;;5031634;28;20044;-54
2023/05/11 00:37:13;;;;;;;9.88;8.18;;;16.70;70.30;;;;;;5014060;28;20050;-50
2023/05/11 00:39:41;;;;;;;10.27;8.20;;;16.60;70.30;;;;;;5031114;28;20490;-51
2023/05/11 00:42:11;;;;;;;10.60;8.93;;;16.60;70.30;;;;;;5006006;28;20049;-50
2023/05/11 00:44:39;;;;;;;9.90;8.85;;;16.60;70.40;;;;;;5029195;28;20095;-54
2023/05/11 00:47:08;;;;;;;10.85;9.52;;;16.60;70.50;;;;;;5034612;28;20042;-55
2023/05/11 00:49:37;;;;;;;10.43;8.45;;;16.60;70.60;;;;;;5027344;28;20494;-54
2023/05/11 00:52:09;;;;;;;;;;;16.60;70.80;;;;;;5012858;28;20045;-54
2023/05/11 00:54:36;;;;;;;13.82;9.13;;;16.60;70.90;;;;;;5011603;28;20438;-53
2023/05/11 00:57:06;;;;;;;12.05;10.30;;;16.60;70.30;;;;;;5013569;28;20057;-53
2023/05/11 00:59:36;;;;;;;12.85;10.23;;;16.50;70.50;;;;;;5013990;28;20128;-55
2023/05/11 01:02:03;;;;;;;11.75;10.05;;;16.50;70.80;;;;;;5031204;28;20052;-55
2023/05/11 01:04:38;;;;;;;13.27;10.63;;;16.50;71.00;;;;;;5000099;28;20117;-55
2023/05/11 01:07:22;;;;;;;14.35;11.80;;;16.50;71.30;;;;;;5011572;28;20049;-50
2023/05/11 01:10:16;;;;;;;14.02;11.02;;;16.50;71.20;;;;;;4991922;28;20042;-53
2023/05/11 01:13:07;;;;;;;13.38;10.38;;;16.50;72.20;;;;;;5010883;28;20045;-54
2023/05/11 01:15:43;;;;;;;14.75;12.55;;;16.50;72.40;;;;;;5024596;28;20544;-52
2023/05/11 01:18:15;;;;;;;14.70;11.63;;;16.50;72.30;;;;;;5013607;28;20052;-52
2023/05/11 01:20:47;;;;;;;16.75;11.93;;;16.40;72.20;;;;;;5012690;28;20041;-54
2023/05/11 01:23:29;;;;;;;13.30;11.00;;;16.40;72.10;;;;;;5013825;28;20053;-54
2023/05/11 01:26:21;;;;;;;14.25;11.70;;;16.50;72.70;;;;;;5029580;28;20518;-52
2023/05/11 01:29:26;;;;;;;14.50;11.45;;;16.50;72.70;;;;;;4997197;28;20509;-53
2023/05/11 01:31:57;;;;;;;13.75;11.05;;;16.50;73.10;;;;;;5025611;28;20116;-53
2023/05/11 01:34:34;;;;;;;14.75;11.65;;;16.50;72.20;;;;;;5027896;28;20045;-52
2023/05/11 01:37:09;;;;;;;17.08;11.80;;;16.60;72.40;;;;;;5013112;28;20041;-52
2023/05/11 01:39:53;;;;;;;12.15;10.75;;;16.60;72.50;;;;;;5024405;28;20041;-51
2023/05/11 01:42:25;;;;;;;15.27;10.68;;;16.60;72.70;;;;;;5011152;28;20037;-55
2023/05/11 01:44:56;;;;;;;12.32;10.15;;;16.70;72.40;;;;;;5006591;28;20502;-52
2023/05/11 01:47:27;;;;;;;15.10;11.27;;;16.70;72.50;;;;;;5033588;28;20478;-54
2023/05/11 01:49:56;;;;;;;15.15;12.02;;;16.70;72.40;;;;;;5012290;28;20046;-54
2023/05/11 01:52:28;;;;;;;13.57;11.25;;;16.70;72.20;;;;;;5031137;28;20460;-53
2023/05/11 01:55:01;;;;;;;12.05;10.27;;;16.70;72.20;;;;;;5010594;28;20065;-55
2023/05/11 01:57:33;;;;;;;12.90;10.82;;;16.70;72.20;;;;;;5030223;28;20084;-53
2023/05/11 02:00:00;;;;;;;;;;;16.80;72.20;;;;;;5022181;28;20042;-52
2023/05/11 02:02:39;;;;;;;13.85;10.60;;;16.80;72.30;;;;;;5023118;28;19921;-53
2023/05/11 02:05:09;;;;;;;12.15;10.82;;;16.80;71.60;;;;;;5011723;28;20060;-55
2023/05/11 02:07:38;;;;;;;14.38;11.02;;;16.80;71.80;;;;;;5029657;28;20049;-53
2023/05/11 02:10:09;;;;;;;13.68;11.18;;;16.80;72.00;;;;;;5029770;28;20532;-52
2023/05/11 02:12:38;;;;;;;14.00;10.85;;;16.80;72.00;;;;;;5029642;28;20037;-54
2023/05/11 02:15:08;;;;;;;15.40;12.27;;;16.80;72.20;;;;;;5028721;28;20414;-55
2023/05/11 02:17:36;;;;;;;14.25;12.27;;;16.80;72.10;;;;;;5011270;28;20047;-53
2023/05/11 02:20:05;;;;;;;15.32;12.88;;;16.80;72.00;;;;;;5011852;28;20052;-54
2023/05/11 02:22:35;;;;;;;15.10;11.75;;;16.80;72.20;;;;;;5004043;28;20041;-52
2023/05/11 02:25:07;;;;;;;14.32;11.95;;;16.80;72.30;;;;;;5029499;28;20065;-52
2023/05/11 02:27:37;;;;;;;15.00;11.85;;;16.80;72.30;;;;;;5011679;28;20052;-50
2023/05/11 02:30:08;;;;;;;14.30;10.98;;;16.80;72.10;;;;;;5011358;28;20573;-51
2023/05/11 02:32:43;;;;;;;13.98;11.48;;;16.80;72.20;;;;;;5029265;28;20096;-52
2023/05/11 02:35:17;;;;;;;18.25;13.27;;;16.80;72.20;;;;;;5029308;28;20444;-54
2023/05/11 02:37:46;;;;;;;16.70;12.93;;;16.90;72.10;;;;;;5029883;28;20081;-55
2023/05/11 02:40:19;;;;;;;17.35;12.98;;;16.80;72.10;;;;;;5011087;28;20045;-51
2023/05/11 02:42:54;;;;;;;14.57;12.63;;;16.80;72.10;;;;;;5010950;28;20071;-54
2023/05/11 02:45:24;;;;;;;17.27;12.75;;;16.80;72.10;;;;;;5028077;28;20037;-54
2023/05/11 02:48:04;;;;;;;14.48;12.40;;;16.80;72.00;;;;;;5014326;28;20096;-54
2023/05/11 02:50:36;;;;;;;16.65;12.85;;;16.80;72.10;;;;;;5010563;28;20049;-55
2023/05/11 02:53:10;;;;;;;16.75;13.95;;;16.80;72.00;;;;;;5012682;28;20089;-51
2023/05/11 02:55:38;;;;;;;15.20;13.07;;;16.80;71.80;;;;;;5010671;28;20075;-53
2023/05/11 02:58:09;;;;;;;;;;;16.70;71.70;;;;;;5011859;28;20046;-55
2023/05/11 03:00:41;;;;;;;13.02;10.75;;;16.80;72.10;;;;;;5008079;28;20008;-54
2023/05/11 03:03:07;;;;;;;17.00;13.82;;;16.70;71.30;;;;;;5009944;28;20050;-52
2023/05/11 03:05:34;;;;;;;18.00;13.70;;;16.70;71.60;;;;;;5010222;28;20041;-54
2023/05/11 03:08:01;;;;;;;17.70;14.02;;;16.60;71.80;;;;;;5028939;28;20037;-51
2023/05/11 03:10:31;;;;;;;18.52;15.18;;;16.60;72.10;;;;;;5011171;28;20045;-52
2023/05/11 03:12:58;;;;;;;21.17;15.43;;;16.60;72.30;;;;;;5010731;28;20148;-53
2023/05/11 03:15:26;;;;;;;21.55;15.50;;;16.50;72.40;;;;;;5009095;28;20041;-54
2023/05/11 03:17:55;;;;;;;18.50;14.55;;;16.50;72.40;;;;;;5011538;28;20065;-52
2023/05/11 03:20:23;;;;;;;17.77;14.75;;;16.50;72.40;;;;;;5010587;28;20530;-52
2023/05/11 03:22:57;;;;;;;19.42;15.57;;;16.40;72.40;;;;;;5011718;28;20790;-52
2023/05/11 03:25:27;;;;;;;17.35;13.75;;;16.40;72.60;;;;;;5006429;28;20034;-51
2023/05/11 03:27:59;;;;;;;20.17;14.82;;;16.40;72.60;;;;;;5011212;28;20038;-50
2023/05/11 03:30:29;;;;;;;16.83;14.30;;;16.30;72.50;;;;;;5010852;28;20069;-54
2023/05/11 03:32:56;;;;;;;21.38;16.10;;;16.30;72.50;;;;;;5011301;28;20042;-54
2023/05/11 03:35:26;;;;;;;21.88;14.82;;;16.30;72.50;;;;;;5011401;28;20049;-50
2023/05/11 03:37:55;;;;;;;21.77;16.45;;;16.20;72.50;;;;;;5012189;28;20110;-55
2023/05/11 03:40:23;;;;;;;23.08;17.38;;;16.20;72.50;;;;;;5011234;28;20698;-53
2023/05/11 03:42:55;;;;;;;23.70;17.38;;;16.10;72.50;;;;;;5028797;28;20041;-53
2023/05/11 03:45:28;;;;;;;28.40;18.80;;;16.10;72.60;;;;;;4997091;28;20034;-52
2023/05/11 03:48:01;;;;;;;25.05;18.15;;;16.00;72.70;;;;;;5013866;28;20414;-50
2023/05/11 03:50:32;;;;;;;24.52;18.30;;;16.00;72.80;;;;;;5011045;28;20034;-51
2023/05/11 03:53:00;;;;;;;26.02;19.30;;;15.90;72.90;;;;;;5028815;28;20033;-54
2023/05/11 03:55:31;;;;;;;24.63;19.02;;;15.90;73.10;;;;;;5008187;28;20042;-55
2023/05/11 03:57:58;;;;;;;25.20;17.98;;;15.90;73.20;;;;;;5012098;28;20041;-54
2023/05/11 04:00:30;;;;;;;25.00;18.17;;;15.90;73.20;;;;;;5028785;28;20108;-51
2023/05/11 04:03:05;;;;;;;27.42;19.98;;;15.90;73.30;;;;;;5011797;28;20058;-51
2023/05/11 04:05:37;;;;;;;24.73;18.60;;;15.80;73.50;;;;;;5004046;28;20045;-53
2023/05/11 04:08:08;;;;;;;27.08;18.30;;;15.80;73.50;;;;;;5014477;28;20537;-54
2023/05/11 04:10:37;;;;;;;25.67;19.70;;;15.90;73.60;;;;;;5014841;28;20045;-53
2023/05/11 04:13:03;;;;;;;25.55;18.52;;;15.90;73.60;;;;;;5031745;28;20409;-54
2023/05/11 04:15:34;;;;;;;23.60;18.23;;;15.90;73.60;;;;;;5020422;28;20042;-54
2023/05/11 04:18:11;;;;;;;23.23;17.88;;;15.90;73.60;;;;;;5014504;28;20136;-54
2023/05/11 04:20:38;;;;;;;23.08;17.48;;;15.90;73.50;;;;;;5014572;28;20041;-54
2023/05/11 04:23:04;;;;;;;23.38;16.95;;;15.90;73.50;;;;;;5015715;28;20042;-53
2023/05/11 04:25:35;;;;;;;21.48;16.45;;;16.00;73.80;;;;;;5031219;28;20556;-54
2023/05/11 04:28:04;;;;;;;22.00;16.55;;;16.00;73.70;;;;;;5032046;28;20398;-53
2023/05/11 04:30:36;;;;;;;23.75;16.55;;;16.00;73.70;;;;;;5007609;28;20569;-54
2023/05/11 04:33:04;;;;;;;21.02;16.58;;;16.00;73.80;;;;;;5030565;28;20429;-54
2023/05/11 04:35:34;;;;;;;21.45;16.42;;;16.00;73.50;;;;;;5004108;28;20089;-55
2023/05/11 04:38:01;;;;;;;22.02;15.52;;;16.10;73.60;;;;;;5007129;28;20046;-51
2023/05/11 04:40:28;;;;;;;17.83;14.65;;;16.10;73.60;;;;;;5013150;28;20048;-52
2023/05/11 04:42:54;;;;;;;21.45;15.68;;;16.10;73.60;;;;;;5011966;28;20034;-55
2023/05/11 04:45:25;;;;;;;28.30;18.40;;;16.10;73.70;;;;;;5013615;28;20511;-50
2023/05/11 04:47:55;;;;;;;22.80;17.33;;;16.10;73.70;;;;;;5012403;28;20073;-51
2023/05/11 04:50:30;;;;;;;24.45;18.58;;;16.20;73.80;;;;;;5011117;28;20132;-52
2023/05/11 04:53:01;;;;;;;27.38;18.85;;;16.20;73.90;;;;;;5030084;28;20095;-52
2023/05/11 04:55:32;;;;;;;22.27;17.35;;;16.20;74.00;;;;;;5009723;28;20664;-55
2023/05/11 04:58:02;;;;;;;24.23;16.88;;;16.30;74.00;;;;;;5009264;28;20481;-50
2023/05/11 05:00:32;;;;;;;21.58;17.13;;;16.30;73.80;;;;;;5023759;28;20041;-51
2023/05/11 05:02:59;;;;;;;22.63;16.27;;;16.40;73.80;;;;;;5016491;28;20502;-52
2023/05/11 05:05:25;;;;;;;20.33;16.35;;;16.40;73.80;;;;;;5013855;28;20056;-55
2023/05/11 05:07:53;;;;;;;21.17;17.15;;;16.40;73.80;;;;;;5029254;28;20057;-50
2023/05/11 05:10:25;;;;;;;22.13;16.30;;;16.50;73.80;;;;;;5002296;28;20049;-51
2023/05/11 05:12:52;;;;;;;21.15;16.95;;;16.50;73.80;;;;;;5014438;28;20041;-52
2023/05/11 05:15:29;;;;;;;21.95;16.85;;;16.60;73.70;;;;;;5010997;28;20037;-51
2023/05/11 05:17:59;;;;;;;21.60;16.48;;;16.60;73.80;;;;;;5012123;28;20044;-52
2023/05/11 05:20:28;;;;;;;20.95;16.73;;;16.60;73.60;;;;;;5030474;28;20501;-52
2023/05/11 05:23:02;;;;;;;19.38;15.20;;;16.60;73.30;;;;;;5014961;28;20136;-52
2023/05/11 05:25:31;;;;;;;22.20;16.33;;;16.60;73.00;;;;;;5009825;28;20056;-53
2023/05/11 05:27:58;;;;;;;22.88;16.02;;;16.70;72.80;;;;;;5008936;28;20057;-55
2023/05/11 05:30:28;;;;;;;21.65;16.05;;;16.70;73.00;;;;;;5012736;28;20064;-53
2023/05/11 05:32:57;;;;;;;21.60;16.75;;;16.70;72.80;;;;;;5012504;28;20103;-52
2023/05/11 05:35:24;;;;;;;19.92;15.90;;;16.70;72.70;;;;;;5025702;28;20501;-55
2023/05/11 05:37:51;;;;;;;21.65;17.23;;;16.70;72.50;;;;;;5012556;28;20033;-53
2023/05/11 05:40:20;;;;;;;23.38;17.27;;;16.70;72.30;;;;;;5010859;28;20046;-50
2023/05/11 05:42:53;;;;;;;22.17;17.08;;;16.70;72.40;;;;;;5007265;28;20699;-53
2023/05/11 05:45:21;;;;;;;27.38;17.73;;;16.70;72.20;;;;;;5023404;28;20050;-54
2023/05/11 05:47:52;;;;;;;24.45;17.50;;;16.70;72.30;;;;;;5009925;28;20057;-55
2023/05/11 05:50:21;;;;;;;29.55;19.98;;;16.80;72.50;;;;;;5000771;28;20068;-51
2023/05/11 05:52:54;;;;;;;24.33;18.05;;;16.80;72.50;;;;;;5012382;28;20104;-52
2023/05/11 05:55:30;;;;;;;23.15;17.25;;;16.80;72.30;;;;;;5011188;28;20045;-55
2023/05/11 05:58:00;;;;;;;24.02;16.85;;;16.80;72.20;;;;;;5029778;28;20041;-55
2023/05/11 06:00:30;;;;;;;26.92;17.52;;;16.80;72.30;;;;;;5010470;28;20041;-54
2023/05/11 06:03:02;;;;;;;22.95;17.25;;;16.80;72.30;;;;;;5011877;28;20041;-50
2023/05/11 06:05:29;;;;;;;24.08;17.52;;;16.80;72.30;;;;;;5028656;28;20042;-55
2023/05/11 06:08:01;;;;;;;22.15;17.85;;;16.90;72.40;;;;;;5011033;28;20123;-54
2023/05/11 06:10:35;;;;;;;23.90;18.27;;;16.90;72.40;;;;;;5017316;28;20041;-54
2023/05/11 06:13:06;;;;;;;27.23;18.95;;;16.90;72.20;;;;;;5025995;28;20636;-51
2023/05/11 06:15:33;;;;;;;28.20;18.77;;;17.00;71.90;;;;;;5002679;28;20038;-55
2023/05/11 06:18:09;;;;;;;26.33;18.83;;;17.00;71.80;;;;;;5013379;28;20095;-55
2023/05/11 06:20:37;;;;;;;29.65;18.35;;;17.10;71.70;;;;;;5014313;28;20039;-55
2023/05/11 06:23:11;;;;;;;29.60;18.85;;;17.10;71.60;;;;;;4998765;28;20042;-54
2023/05/11 06:25:39;;;;;;;24.38;18.02;;;17.10;71.80;;;;;;5011306;28;20095;-52
2023/05/11 06:28:06;;;;;;;26.65;19.65;;;17.10;71.80;;;;;;5013001;28;20045;-53
2023/05/11 06:30:40;;;;;;;26.88;19.30;;;17.20;71.80;;;;;;5011898;28;20045;-54
2023/05/11 06:33:11;;;;;;;25.60;18.23;;;17.20;71.70;;;;;;5012686;28;20521;-55
2023/05/11 06:35:39;;;;;;;29.25;17.95;;;17.20;71.50;;;;;;5010839;28;20044;-55
2023/05/11 06:38:08;;;;;;;26.90;17.73;;;17.30;71.40;;;;;;5030355;28;20064;-55
2023/05/11 06:40:38;;;;;;;26.73;18.35;;;17.30;71.30;;;;;;5009449;28;20049;-51
2023/05/11 06:43:07;;;;;;;31.08;18.20;;;17.30;71.20;;;;;;5010886;28;20037;-52
2023/05/11 06:45:45;;;;;;;23.52;17.30;;;17.40;71.20;;;;;;5009548;28;20152;-52
2023/05/11 06:48:13;;;;;;;24.73;17.00;;;17.40;71.20;;;;;;5010774;28;20056;-55
2023/05/11 06:50:41;;;;;;;25.17;17.63;;;17.40;71.20;;;;;;5025686;28;20132;-51
2023/05/11 06:53:16;;;;;;;27.27;18.10;;;17.50;71.10;;;;;;5024447;28;20096;-54
2023/05/11 06:55:43;;;;;;;25.90;20.00;;;17.50;71.20;;;;;;5024031;28;20061;-55
2023/05/11 06:58:15;;;;;;;30.70;20.55;;;17.50;71.10;;;;;;5009279;28;20048;-54
2023/05/11 07:00:42;;;;;;;30.42;21.73;;;17.60;70.90;;;;;;5026274;28;20049;-53
2023/05/11 07:03:11;;;;;;;35.53;22.35;;;17.60;70.70;;;;;;5025778;28;20033;-54
2023/05/11 07:05:39;;;;;;;26.42;19.70;;;17.70;70.50;;;;;;5023904;28;20513;-55
2023/05/11 07:08:11;;;;;;;25.70;19.83;;;17.70;70.40;;;;;;5025190;28;20037;-54
2023/05/11 07:10:40;;;;;;;27.70;19.73;;;17.70;70.50;;;;;;5026671;28;20536;-53
2023/05/11 07:13:07;;;;;;;29.77;19.08;;;17.80;70.70;;;;;;5026024;28;20061;-54
2023/05/11 07:15:34;;;;;;;27.35;17.50;;;17.80;70.40;;;;;;5023013;28;20072;-55
2023/05/11 07:18:03;;;;;;;23.45;15.45;;;17.90;70.00;;;;;;5027046;28;20044;-52
2023/05/11 07:20:30;;;;;;;23.50;16.88;;;18.00;69.90;;;;;;5026351;28;20034;-55
2023/05/11 07:22:58;;;;;;;21.30;15.48;;;18.00;69.80;;;;;;5012508;28;20051;-52
2023/05/11 07:25:27;;;;;;;23.60;15.73;;;18.10;69.60;;;;;;5029316;28;20042;-53
2023/05/11 07:27:58;;;;;;;18.40;14.60;;;18.10;69.50;;;;;;5030447;28;20041;-55
2023/05/11 07:30:28;;;;;;;16.58;12.35;;;18.20;69.60;;;;;;5030181;28;20049;-54
2023/05/11 07:33:02;;;;;;;15.82;12.95;;;18.30;69.20;;;;;;5028944;28;20068;-53
2023/05/11 07:35:28;;;;;;;14.75;11.82;;;18.30;68.90;;;;;;5029388;28;20545;-54
2023/05/11 07:37:55;;;;;;;21.55;12.93;;;18.30;69.10;;;;;;5029361;28;20048;-51
2023/05/11 07:40:24;;;;;;;16.15;11.80;;;18.40;68.80;;;;;;5028624;28;20041;-55
2023/05/11 07:42:51;;;;;;;15.85;12.73;;;18.40;68.50;;;;;;5031255;28;20222;-54
2023/05/11 07:45:20;;;;;;;14.95;11.65;;;18.50;68.40;;;;;;5024010;28;20041;-52
2023/05/11 07:47:49;;;;;;;16.88;11.88;;;18.50;68.10;;;;;;5033225;28;20045;-54
2023/05/11 07:50:17;;;;;;;18.63;12.20;;;18.50;67.70;;;;;;5033375;28;20114;-54
2023/05/11 07:52:49;;;;;;;15.63;11.55;;;18.50;67.70;;;;;;5032514;28;20099;-55
2023/05/11 07:55:18;;;;;;;18.42;11.35;;;18.50;67.60;;;;;;5033011;28;20030;-54
2023/05/11 07:57:45;;;;;;;13.07;9.77;;;18.40;67.40;;;;;;5030998;28;20045;-52
2023/05/11 08:00:15;;;;;;;14.65;11.25;;;18.40;67.40;;;;;;5032265;28;20045;-54
2023/05/11 08:02:47;;;;;;;15.43;10.70;;;18.40;67.50;;;;;;5032994;28;20047;-53
2023/05/11 08:05:14;;;;;;;16.08;10.52;;;18.40;67.50;;;;;;5033164;28;20069;-55
2023/05/11 08:07:46;;;;;;;14.77;11.25;;;18.40;67.60;;;;;;5032494;28;20051;-52
2023/05/11 08:10:15;;;;;;;14.48;10.43;;;18.40;67.50;;;;;;5032377;28;20056;-55
2023/05/11 08:12:41;;;;;;;15.55;10.18;;;18.40;67.60;;;;;;5032738;28;20048;-55
2023/05/11 08:15:08;;;;;;;18.00;12.38;;;18.40;68.00;;;;;;5017833;28;20417;-54
2023/05/11 08:17:36;;;;;;;15.32;10.52;;;18.40;68.00;;;;;;5032633;28;20041;-55
2023/05/11 08:20:05;;;;;;;16.83;10.70;;;18.40;68.00;;;;;;5033045;28;20051;-53
2023/05/11 08:22:31;;;;;;;16.85;10.45;;;18.40;67.90;;;;;;5015195;28;20045;-55
2023/05/11 08:25:02;;;;;;;19.15;11.30;;;18.40;67.90;;;;;;5032081;28;20052;-51
2023/05/11 08:27:29;;;;;;;18.00;10.63;;;18.40;67.90;;;;;;5032335;28;20505;-52
2023/05/11 08:29:55;;;;;;;19.95;11.32;;;18.50;68.00;;;;;;5032717;28;20065;-52
2023/05/11 08:32:38;;;;;;;19.13;10.03;;;18.50;67.60;;;;;;5037238;28;20041;-53
2023/05/11 08:35:13;;;;;;;17.20;11.27;;;18.60;67.90;;;;;;5030256;28;20120;-52
2023/05/11 08:37:45;;;;;;;14.30;9.75;;;18.80;67.50;;;;;;5032327;28;20091;-55
2023/05/11 08:40:13;;;;;;;15.32;10.60;;;18.90;66.80;;;;;;5032557;28;20463;-53
2023/05/11 08:42:44;;;;;;;17.98;11.05;;;18.90;66.50;;;;;;5031488;28;20041;-51
2023/05/11 08:45:11;;;;;;;16.52;11.15;;;19.00;66.20;;;;;;5030966;28;20053;-52
2023/05/11 08:47:40;;;;;;;13.02;10.60;;;19.10;66.20;;;;;;5031824;28;20458;-53
2023/05/11 08:50:07;;;;;;;18.52;11.23;;;19.10;65.90;;;;;;5030772;28;20037;-53
2023/05/11 08:52:34;;;;;;;11.93;9.63;;;19.20;65.80;;;;;;5013311;28;20413;-52
2023/05/11 08:55:12;;;;;;;18.30;10.77;;;19.30;65.60;;;;;;5030926;28;20037;-55
2023/05/11 08:57:39;;;;;;;18.80;12.52;;;19.30;65.70;;;;;;5030210;28;20037;-52
2023/05/11 09:00:12;;;;;;;19.55;9.73;;;19.40;65.40;;;;;;5029068;28;20128;-52
2023/05/11 09:02:45;;;;;;;18.00;10.93;;;19.30;65.30;;;;;;5014579;28;20095;-55
2023/05/11 09:05:15;;;;;;;11.95;9.65;;;19.40;65.40;;;;;;5014437;28;20418;-51
2023/05/11 09:08:03;;;;;;;15.27;9.50;;;19.40;65.10;;;;;;5016624;28;20045;-53
2023/05/11 09:10:32;;;;;;;14.55;9.18;;;19.50;65.30;;;;;;5026835;28;20049;-55
2023/05/11 09:12:58;;;;;;;13.82;8.95;;;19.50;64.90;;;;;;5029502;28;20053;-55
2023/05/11 09:15:28;;;;;;;15.52;8.43;;;19.60;64.70;;;;;;5029513;28;20486;-55
2023/05/11 09:17:57;;;;;;;16.92;9.88;;;19.70;64.30;;;;;;5030078;28;20462;-53
2023/05/11 09:20:30;;;;;;;18.02;10.13;;;19.80;63.90;;;;;;5030586;28;20498;-55
2023/05/11 09:22:57;;;;;;;18.75;9.63;;;19.90;63.40;;;;;;5013413;28;20037;-55
2023/05/11 09:25:33;;;;;;;13.85;9.55;;;20.00;63.40;;;;;;5029090;28;20049;-54
2023/05/11 09:28:00;;;;;;;15.52;10.07;;;20.00;62.90;;;;;;5030011;28;20476;-55
2023/05/11 09:30:29;;;;;;;14.32;9.75;;;20.10;62.80;;;;;;5029890;28;20552;-55
2023/05/11 09:33:01;;;;;;;14.98;10.27;;;20.20;62.60;;;;;;5029481;28;20513;-55
2023/05/11 09:35:33;;;;;;;14.18;9.60;;;20.20;62.70;;;;;;5030295;28;20056;-53
2023/05/11 09:38:07;;;;;;;14.25;10.25;;;20.20;62.10;;;;;;5020373;28;20041;-54
2023/05/11 09:40:38;;;;;;;16.63;9.48;;;20.20;61.80;;;;;;5010374;28;20045;-55
2023/05/11 09:43:19;;;;;;;12.65;8.75;;;20.20;61.50;;;;;;5015901;28;20060;-53
2023/05/11 09:45:52;;;;;;;15.07;9.73;;;20.20;61.20;;;;;;5025551;28;20041;-55
2023/05/11 09:48:26;;;;;;;14.75;9.82;;;20.20;61.80;;;;;;4993708;28;1017993;-51
2023/05/11 09:51:00;;;;;;;15.07;9.52;;;20.20;62.00;;;;;;5030719;28;20049;-55
2023/05/11 09:53:39;;;;;;;12.65;8.38;;;20.20;62.00;;;;;;5030716;28;20057;-51
2023/05/11 09:56:08;;;;;;;13.73;9.30;;;20.20;61.40;;;;;;5030222;28;20099;-55
2023/05/11 09:58:54;;;;;;;18.45;9.10;;;20.20;61.80;;;;;;5023541;28;20048;-51
2023/05/11 10:01:29;;;;;;;12.32;8.75;;;20.20;61.00;;;;;;5030385;28;20041;-53
2023/05/11 10:03:59;;;;;;;14.85;8.63;;;20.20;60.80;;;;;;5030670;28;20464;-53
2023/05/11 10:06:53;;;;;;;11.73;8.77;;;20.30;61.30;;;;;;5023992;28;20087;-53
2023/05/11 10:09:26;;;;;;;15.77;8.52;;;20.30;61.40;;;;;;5030425;28;20041;-52
2023/05/11 10:11:53;;;;;;;10.15;7.97;;;20.30;60.80;;;;;;5029510;28;20517;-51
2023/05/11 10:14:24;;;;;;;12.43;8.93;;;20.30;61.10;;;;;;5030721;28;20050;-53
2023/05/11 10:16:57;;;;;;;15.93;8.90;;;20.20;60.90;;;;;;5027940;28;20383;-53
2023/05/11 10:19:29;;;;;;;13.40;9.17;;;20.20;60.60;;;;;;5030335;28;20613;-53
2023/05/11 10:21:59;;;;;;;14.43;8.93;;;20.10;60.70;;;;;;5030410;28;20111;-49
2023/05/11 10:24:26;;;;;;;13.95;9.40;;;20.10;60.80;;;;;;5030327;28;20117;-51
2023/05/11 10:26:56;;;;;;;12.85;9.32;;;20.00;60.80;;;;;;5030227;28;20133;-52
2023/05/11 10:29:24;;;;;;;10.73;8.43;;;19.90;61.00;;;;;;5030421;28;20548;-52
2023/05/11 10:31:56;;;;;;;12.38;8.80;;;19.90;61.40;;;;;;5029169;28;20494;-50
2023/05/11 10:34:23;;;;;;;13.68;7.97;;;19.80;61.20;;;;;;5031105;28;20050;-50
2023/05/11 10:36:56;;;;;;;11.40;9.35;;;19.80;61.70;;;;;;5016853;28;20100;-51
2023/05/11 10:39:27;;;;;;;16.40;9.25;;;19.80;61.70;;;;;;5018327;28;20057;-53
2023/05/11 10:42:36;;;;;;;13.13;9.25;;;19.80;61.80;;;;;;5029524;28;20050;-53
2023/05/11 10:45:22;;;;;;;12.93;8.95;;;19.90;61.80;;;;;;5007655;28;20522;-52
2023/05/11 10:48:28;;;;;;;11.88;9.10;;;19.90;61.70;;;;;;5026760;28;20052;-53
2023/05/11 10:51:06;;;;;;;11.63;9.13;;;20.00;61.70;;;;;;5024327;28;20425;-54
2023/05/11 10:54:06;;;;;;;11.57;9.13;;;20.20;62.70;;;;;;5029605;28;20056;-52
2023/05/11 10:56:41;;;;;;;13.45;8.73;;;20.30;61.40;;;;;;5029068;28;20046;-51
2023/05/11 10:59:54;;;;;;;12.18;8.25;;;20.50;61.60;;;;;;5030514;28;20052;-50
2023/05/11 11:02:21;;;;;;;14.95;8.77;;;20.60;59.70;;;;;;5026765;28;20045;-53
2023/05/11 11:04:50;;;;;;;11.00;7.85;;;20.80;60.40;;;;;;5030595;28;20079;-54
2023/05/11 11:07:20;;;;;;;13.43;9.48;;;20.90;60.40;;;;;;5029466;28;20410;-51
2023/05/11 11:09:58;;;;;;;12.70;9.32;;;20.90;59.80;;;;;;5028560;28;20144;-49
2023/05/11 11:12:33;;;;;;;13.50;8.77;;;21.00;59.40;;;;;;5027857;28;20124;-54
2023/05/11 11:15:06;;;;;;;14.38;9.50;;;21.10;59.00;;;;;;5012873;28;20058;-52
2023/05/11 11:17:34;;;;;;;13.55;9.10;;;21.10;58.30;;;;;;5008242;28;20096;-53
2023/05/11 11:20:06;;;;;;;12.70;9.23;;;21.10;58.60;;;;;;5011431;28;20048;-53
2023/05/11 11:22:40;;;;;;;12.98;9.57;;;21.20;58.30;;;;;;5010050;28;20494;-53
2023/05/11 11:25:08;;;;;;;15.25;9.32;;;21.30;58.10;;;;;;5012201;28;20113;-51
2023/05/11 11:27:38;;;;;;;11.85;9.85;;;21.30;58.50;;;;;;5009820;28;20116;-54
2023/05/11 11:30:18;;;;;;;12.68;8.95;;;21.30;57.50;;;;;;5011602;28;20049;-52
2023/05/11 11:32:47;;;;;;;14.38;9.27;;;21.30;57.00;;;;;;5021321;28;20057;-54
2023/05/11 11:35:41;;;;;;;14.25;9.50;;;21.30;57.60;;;;;;5030301;28;20049;-53
2023/05/11 11:38:13;;;;;;;11.48;9.25;;;21.30;57.10;;;;;;5011487;28;20104;-52
2023/05/11 11:40:45;;;;;;;13.45;9.15;;;21.20;57.70;;;;;;5021831;28;20080;-53
2023/05/11 11:43:42;;;;;;;13.10;9.18;;;21.20;57.90;;;;;;5012391;28;20056;-53
2023/05/11 11:46:28;;;;;;;14.60;10.05;;;21.20;57.40;;;;;;5020610;28;20132;-53
2023/05/11 11:49:08;;;;;;;12.15;10.07;;;21.20;57.80;;;;;;5025761;28;20057;-53
2023/05/11 11:51:44;;;;;;;15.98;9.55;;;21.10;57.80;;;;;;5028380;28;20123;-53
2023/05/11 11:54:41;;;;;;;15.27;9.52;;;21.10;58.20;;;;;;5028880;28;20042;-53
2023/05/11 11:57:49;;;;;;;14.10;9.50;;;21.10;58.50;;;;;;5028844;28;20046;-54
2023/05/11 12:00:26;;;;;;;16.85;10.02;;;21.20;58.50;;;;;;4994560;28;20080;-51
2023/05/11 12:02:56;;;;;;;13.50;8.80;;;21.20;58.10;;;;;;5029275;28;20038;-54
2023/05/11 12:05:27;;;;;;;12.70;9.15;;;21.20;58.40;;;;;;5029411;28;20049;-52
2023/05/11 12:08:04;;;;;;;14.43;10.68;;;21.20;58.50;;;;;;5015729;28;20050;-53
2023/05/11 12:10:31;;;;;;;14.07;9.82;;;21.30;58.30;;;;;;5022585;28;20045;-52
2023/05/11 12:13:24;;;;;;;17.48;9.90;;;21.30;58.90;;;;;;5025995;28;20059;-53
2023/05/11 12:16:17;;;;;;;14.50;9.43;;;21.40;58.90;;;;;;5027721;28;20120;-53
2023/05/11 12:18:58;;;;;;;15.30;10.17;;;21.60;58.30;;;;;;5024664;28;20037;-52
2023/05/11 12:21:31;;;;;;;13.52;10.32;;;21.70;57.20;;;;;;5028644;28;20292;-53
2023/05/11 12:24:05;;;;;;;16.88;11.20;;;21.80;57.50;;;;;;5029345;28;20037;-53
2023/05/11 12:26:36;;;;;;;17.83;11.32;;;21.90;57.60;;;;;;4993172;28;20065;-53
2023/05/11 12:29:13;;;;;;;14.35;11.10;;;22.00;57.10;;;;;;5011881;28;20076;-54
2023/05/11 12:31:47;;;;;;;16.20;12.13;;;22.00;57.30;;;;;;5018021;28;20591;-54
2023/05/11 12:34:17;;;;;;;16.13;10.75;;;22.10;56.60;;;;;;5033500;28;20417;-53
2023/05/11 12:36:48;;;;;;;18.33;11.25;;;22.10;56.80;;;;;;5021351;28;20037;-54
2023/05/11 12:39:22;;;;;;;15.15;11.15;;;22.20;57.30;;;;;;5012993;28;20132;-54
2023/05/11 12:41:50;;;;;;;15.05;10.80;;;22.20;56.90;;;;;;5009026;28;20137;-54
2023/05/11 12:44:20;;;;;;;15.10;9.80;;;22.30;56.60;;;;;;5025189;28;20053;-53
2023/05/11 12:46:48;;;;;;;16.05;9.60;;;22.30;56.00;;;;;;5027436;28;20069;-54
2023/05/11 12:49:33;;;;;;;12.75;9.32;;;22.30;55.30;;;;;;5013744;28;20041;-54
2023/05/11 12:52:08;;;;;;;13.13;9.05;;;22.30;55.50;;;;;;5046037;22;20063;-48
2023/05/11 12:54:38;;;;;;;11.90;8.95;;;22.40;55.40;;;;;;5050992;28;20524;-49
2023/05/11 12:57:21;;;;;;;10.27;7.63;;;22.40;56.30;;;;;;5051179;28;20048;-52